罗盘
风向 的 风向 210° Flugplatz Nordhorn-Lingen 5/23
风: 7 kt, 3 beaufort

6 kt

3 kt
改变
0 1.000 2.000 3.000 4.000 5.000
FEW 4.000 ft
METAR ETWM 160920Z 21007KT 9999 FEW040 26/16 Q1007 BLU+

METAR Flugplatz Nordhorn-Lingen - EDWN

Flugplatz Nordhorn-Lingen是Klausheide,德国中的小机场。 该机场有一条跑道: 5/23. 该领域的国际民航组织标志是EDWN.

这份报告是针对2022年8月16日 11:20, 当地时间在Meppen Air Base进行的。

机场观察

风向为210°,速度为7 kt。

可见度为10 km 或者更多。

有几云在4.000 ft的高度。 没有观察到天花板。

温度和风寒是26 °C。 露点为16 °C,相对湿度为54%。 海平面上的气压为1007 hPa (QNH)。

白天

今天,太阳从06:15升起,在20:55降落。 这适用于Flugplatz Nordhorn-Lingen,世界夏令时可能有所不同。 当地时间与世界标准时间之间的时差为+2 小时。 夏令时目前正在进行中。

公司介绍

我们没有关于这个机场的公司信息。

体会

到Vliegles.nl去找飞行课程,跳伞和其他飞行体验。 浏览页面,了解Flugplatz Nordhorn-Lingen附近所有可用的活动。 你也可以使用搜索功能来寻找你所在地附近的特定飞行课程、跳伞或其他飞行体验。

跑道

Id 标题 侧风 逆风 侧风 %
5/23 053°-233° 3 kt 6 kt 39 %

逆风成分最大的方向会被突出显示,并用于横风计算。 这并不一定意味着这个方向在使用。

乌云

4.000 ft FEW 几云

温度 & 天气

温度 26 °C
露点 16 °C
相对湿度 54%
Kp-index 0  

白天

日出
06:14
中午
13:34
日落
20:55 (8h 58m)

小工具

你想在你的网站上有一个关于Flugplatz Nordhorn-Lingen的当前航空天气(METAR)的小部件吗?

</> 显示HTML代码

我们和第三方通过cookies跟踪您在我们网站上的上网行为。如果您继续,我们认为您同意我们的cookie政策。 了解更多